Time;durP1;ratioP1;P1;durP2;ratioP2;P2;SDS_P1;SDS_P2;PMS_P1;PMS_P2;Temp;Humidity;BMP_temperature;BMP_pressure;BME280_temperature;BME280_humidity;BME280_pressure;Samples;Min_cycle;Max_cycle;Signal;HPM_P1;HPM_P2
2021/12/04 00:02:12;;;;;;;11.82;6.60;;;1.00;99.90;;;;;;2628624;39;20069;-75
2021/12/04 00:04:50;;;;;;;12.50;6.22;;;1.00;99.90;;;;;;2630104;54;20026;-75
2021/12/04 00:07:23;;;;;;;9.50;5.82;;;1.10;99.90;;;;;;2630659;46;20034;-75
2021/12/04 00:10:01;;;;;;;11.35;6.05;;;1.10;99.90;;;;;;2629172;54;20038;-76
2021/12/04 00:12:34;;;;;;;12.40;6.63;;;1.10;99.90;;;;;;2629611;54;20034;-75
2021/12/04 00:15:07;;;;;;;9.52;5.60;;;1.10;99.90;;;;;;2629963;46;20529;-75
2021/12/04 00:17:39;;;;;;;11.05;6.85;;;1.10;99.90;;;;;;2629334;54;20022;-75
2021/12/04 00:20:15;;;;;;;9.23;5.85;;;1.10;99.90;;;;;;2629277;54;20521;-74
2021/12/04 00:22:47;;;;;;;9.25;5.32;;;1.10;99.90;;;;;;2628959;54;20034;-75
2021/12/04 00:25:21;;;;;;;9.82;6.03;;;1.10;99.90;;;;;;2628753;54;20037;-76
2021/12/04 00:27:52;;;;;;;9.98;5.80;;;1.10;99.90;;;;;;2628805;54;20026;-74
2021/12/04 00:30:25;;;;;;;9.90;5.55;;;1.10;99.90;;;;;;2628265;54;20114;-75
2021/12/04 00:33:01;;;;;;;10.52;5.80;;;1.10;99.90;;;;;;2628439;54;20030;-76
2021/12/04 00:49:37;;;;;;;9.50;5.50;;;1.10;99.90;;;;;;2628476;54;20029;-75
2021/12/04 00:52:23;;;;;;;8.75;5.15;;;1.20;99.90;;;;;;2628427;54;20026;-75
2021/12/04 00:54:55;;;;;;;8.07;5.05;;;1.20;99.90;;;;;;2628952;39;20433;-74
2021/12/04 00:57:28;;;;;;;8.27;5.25;;;1.20;99.90;;;;;;2630468;39;20385;-75
2021/12/04 01:00:00;;;;;;;10.90;5.22;;;1.20;99.90;;;;;;2628179;54;20034;-74
2021/12/04 01:02:40;;;;;;;7.45;4.80;;;1.20;99.90;;;;;;2627698;54;20030;-75
2021/12/04 01:05:14;;;;;;;6.10;4.15;;;1.20;99.90;;;;;;2625834;54;20695;-76
2021/12/04 01:07:49;;;;;;;7.07;4.93;;;1.20;99.90;;;;;;2628342;54;20077;-76
2021/12/04 01:10:20;;;;;;;8.40;4.88;;;1.30;99.90;;;;;;2628297;54;20031;-76
2021/12/04 01:12:56;;;;;;;8.88;4.50;;;1.30;99.90;;;;;;2628097;54;20034;-75
2021/12/04 01:15:32;;;;;;;6.82;4.68;;;1.30;99.90;;;;;;2628077;54;20029;-76
2021/12/04 01:18:04;;;;;;;;;;;1.30;99.90;;;;;;2628329;54;20053;-76
2021/12/04 01:20:39;;;;;;;7.65;4.70;;;1.40;99.90;;;;;;2629084;46;19946;-77
2021/12/04 01:23:15;;;;;;;7.57;4.95;;;1.40;99.90;;;;;;2627902;54;20030;-74
2021/12/04 01:25:54;;;;;;;6.43;4.47;;;1.40;99.90;;;;;;2627851;54;20079;-75
2021/12/04 01:28:26;;;;;;;7.43;4.57;;;1.40;99.90;;;;;;2629000;46;20145;-74
2021/12/04 01:31:03;;;;;;;9.95;4.97;;;1.40;99.90;;;;;;2628147;54;20022;-76
2021/12/04 01:33:47;;;;;;;6.32;4.20;;;1.50;99.90;;;;;;2628236;54;20069;-76
2021/12/04 01:36:19;;;;;;;9.32;5.53;;;1.50;99.90;;;;;;2628572;54;20030;-75
2021/12/04 01:39:01;;;;;;;7.72;4.93;;;1.50;99.90;;;;;;2628226;54;20036;-75
2021/12/04 01:41:34;;;;;;;11.05;5.28;;;1.50;99.90;;;;;;2628306;54;20032;-76
2021/12/04 01:44:14;;;;;;;9.13;5.35;;;1.50;99.90;;;;;;2628350;54;20026;-78
2021/12/04 01:46:48;;;;;;;9.70;4.88;;;1.50;99.90;;;;;;2629453;46;20027;-75
2021/12/04 01:49:20;;;;;;;12.38;5.53;;;1.40;99.90;;;;;;2628111;54;20027;-75
2021/12/04 01:51:52;;;;;;;14.30;6.03;;;1.50;99.90;;;;;;2628783;46;20007;-77
2021/12/04 01:54:36;;;;;;;10.27;5.75;;;1.40;99.90;;;;;;2628095;54;20039;-77
2021/12/04 01:57:08;;;;;;;13.90;6.03;;;1.40;99.90;;;;;;2628418;39;20429;-74
2021/12/04 01:59:40;;;;;;;11.55;5.88;;;1.40;99.90;;;;;;2628644;46;20026;-74
2021/12/04 02:02:14;;;;;;;12.13;5.32;;;1.30;99.90;;;;;;2628309;54;20026;-75
2021/12/04 02:04:47;;;;;;;11.45;5.88;;;1.30;99.90;;;;;;2628093;54;20066;-74
2021/12/04 02:07:20;;;;;;;11.23;5.65;;;1.30;99.90;;;;;;2627013;54;20027;-74
2021/12/04 02:09:57;;;;;;;12.38;5.22;;;1.30;99.90;;;;;;2627854;54;20037;-77
2021/12/04 02:12:30;;;;;;;15.38;5.97;;;1.30;99.90;;;;;;2628264;54;20085;-75
2021/12/04 02:15:02;;;;;;;12.80;6.00;;;1.30;99.90;;;;;;2627995;54;20027;-75
2021/12/04 02:17:34;;;;;;;16.63;5.82;;;1.30;99.90;;;;;;2627882;54;20054;-75
2021/12/04 02:20:18;;;;;;;10.52;5.13;;;1.30;99.90;;;;;;2628246;54;20577;-77
2021/12/04 02:22:52;;;;;;;10.75;5.35;;;1.20;99.90;;;;;;2628052;54;20030;-75
2021/12/04 02:25:24;;;;;;;12.20;5.32;;;1.20;99.90;;;;;;2628021;54;20053;-75
2021/12/04 02:27:56;;;;;;;15.10;5.47;;;1.20;99.90;;;;;;2629613;39;20417;-76
2021/12/04 02:30:30;;;;;;;10.07;5.05;;;1.20;99.90;;;;;;2627779;46;20548;-75
2021/12/04 02:33:10;;;;;;;15.15;4.65;;;1.20;99.90;;;;;;2629512;46;20027;-75
2021/12/04 02:35:48;;;;;;;10.93;5.15;;;1.30;99.90;;;;;;2627671;54;20026;-77
2021/12/04 02:38:22;;;;;;;9.25;4.63;;;1.20;99.90;;;;;;2628313;54;20038;-75
2021/12/04 02:40:56;;;;;;;9.00;5.05;;;1.20;99.90;;;;;;2627550;54;20034;-75
2021/12/04 02:43:34;;;;;;;9.40;5.35;;;1.20;99.90;;;;;;2627515;54;20026;-75
2021/12/04 02:46:06;;;;;;;10.88;5.22;;;1.20;99.90;;;;;;2627805;54;20095;-75
2021/12/04 02:48:38;;;;;;;9.93;4.97;;;1.20;99.90;;;;;;2627630;54;20038;-76
2021/12/04 02:51:15;;;;;;;11.18;5.32;;;1.20;99.90;;;;;;2628054;54;20559;-75
2021/12/04 02:53:57;;;;;;;;;;;1.20;99.90;;;;;;2628353;54;20027;-76
2021/12/04 02:56:30;;;;;;;10.65;4.88;;;1.30;99.90;;;;;;2627339;47;19946;-76
2021/12/04 02:59:04;;;;;;;9.70;4.90;;;1.20;99.90;;;;;;2627528;54;20038;-75
2021/12/04 03:01:35;;;;;;;7.65;4.28;;;1.20;99.90;;;;;;2628070;54;20141;-75
2021/12/04 03:04:11;;;;;;;9.63;4.60;;;1.20;99.90;;;;;;2627817;54;20029;-76
2021/12/04 03:06:47;;;;;;;8.60;4.37;;;1.30;99.90;;;;;;2627303;47;20037;-75
2021/12/04 03:09:22;;;;;;;7.78;4.07;;;1.30;99.90;;;;;;2627872;39;20437;-75
2021/12/04 03:11:54;;;;;;;7.70;4.13;;;1.30;99.90;;;;;;2627479;54;20030;-75
2021/12/04 03:14:29;;;;;;;10.20;4.30;;;1.40;99.90;;;;;;2627342;54;20055;-78
2021/12/04 03:17:01;;;;;;;5.82;3.72;;;1.40;99.90;;;;;;2628262;46;20061;-76
2021/12/04 03:19:32;;;;;;;7.22;3.22;;;1.40;99.90;;;;;;2626984;54;20081;-76
2021/12/04 03:22:08;;;;;;;6.53;4.18;;;1.50;99.90;;;;;;2627272;54;20564;-77
2021/12/04 03:24:44;;;;;;;6.85;3.65;;;1.40;99.90;;;;;;2627159;54;20035;-74
2021/12/04 03:27:18;;;;;;;7.20;4.07;;;1.50;99.90;;;;;;2627941;54;20030;-74
2021/12/04 03:29:55;;;;;;;5.63;3.70;;;1.50;99.90;;;;;;2627304;54;20014;-75
2021/12/04 03:35:20;;;;;;;5.82;3.25;;;1.50;99.90;;;;;;2626811;54;20601;-76
2021/12/04 03:43:23;;;;;;;8.65;4.03;;;1.50;99.90;;;;;;2628009;47;20031;-74
2021/12/04 03:45:59;;;;;;;7.18;3.95;;;1.50;99.90;;;;;;2626343;54;20034;-75
2021/12/04 03:51:15;;;;;;;5.75;3.72;;;1.50;99.90;;;;;;2626026;54;20162;-76
2021/12/04 03:53:49;;;;;;;7.85;3.70;;;1.60;99.90;;;;;;2626255;54;20026;-77
2021/12/04 03:56:24;;;;;;;5.78;3.60;;;1.50;99.90;;;;;;2626557;54;20030;-75
2021/12/04 03:59:00;;;;;;;7.67;3.97;;;1.50;99.90;;;;;;2626525;54;20034;-75
2021/12/04 04:01:32;;;;;;;7.45;3.47;;;1.50;99.90;;;;;;2626787;54;20034;-75
2021/12/04 04:04:06;;;;;;;9.85;3.80;;;1.50;99.90;;;;;;2625921;54;20045;-77
2021/12/04 04:06:37;;;;;;;5.75;3.25;;;1.60;99.90;;;;;;2626185;54;20041;-75
2021/12/04 04:09:12;;;;;;;7.13;4.15;;;1.60;99.90;;;;;;2626262;39;20508;-74
2021/12/04 04:14:31;;;;;;;6.82;3.75;;;1.60;99.90;;;;;;2628726;47;20057;-74
2021/12/04 04:17:03;;;;;;;9.30;3.50;;;1.60;99.90;;;;;;2625867;54;20031;-76
2021/12/04 04:19:35;;;;;;;6.88;3.50;;;1.60;99.90;;;;;;2625965;54;20030;-75
2021/12/04 04:22:08;;;;;;;7.78;3.92;;;1.50;99.90;;;;;;2626528;54;20042;-75
2021/12/04 04:24:48;;;;;;;6.45;3.15;;;1.60;99.90;;;;;;2626217;54;20027;-74
2021/12/04 04:27:19;;;;;;;6.30;3.13;;;1.50;99.90;;;;;;2626942;46;20054;-76
2021/12/04 04:29:53;;;;;;;7.60;3.63;;;1.50;99.90;;;;;;2626483;54;20036;-76
2021/12/04 04:32:25;;;;;;;5.43;3.35;;;1.50;99.90;;;;;;2626417;54;20057;-74
2021/12/04 04:35:06;;;;;;;6.60;3.90;;;1.50;99.90;;;;;;2626389;46;20035;-79
2021/12/04 04:37:43;;;;;;;9.95;3.70;;;1.50;99.90;;;;;;2629428;39;20383;-75
2021/12/04 05:02:40;;;;;;;6.18;3.13;;;1.50;99.90;;;;;;2626137;54;20034;-75
2021/12/04 05:13:35;;;;;;;4.40;3.03;;;1.40;99.90;;;;;;2624920;54;20030;-74
2021/12/04 05:16:14;;;;;;;7.18;3.42;;;1.40;99.90;;;;;;2625672;54;20086;-77
2021/12/04 05:18:55;;;;;;;7.55;3.25;;;1.40;99.90;;;;;;2626683;54;20026;-74
2021/12/04 05:21:28;;;;;;;5.80;3.55;;;1.50;99.90;;;;;;2626788;46;20121;-77
2021/12/04 05:24:01;;;;;;;7.97;3.63;;;1.40;99.90;;;;;;2626805;46;20042;-74
2021/12/04 05:26:33;;;;;;;6.47;3.50;;;1.50;99.90;;;;;;2626443;54;20035;-75
2021/12/04 05:29:11;;;;;;;5.45;3.45;;;1.40;99.90;;;;;;2627058;54;20057;-76
2021/12/04 05:31:42;;;;;;;7.50;3.17;;;1.50;99.90;;;;;;2626477;54;20077;-75
2021/12/04 05:34:16;;;;;;;4.93;3.28;;;1.50;99.90;;;;;;2626905;54;20556;-75
2021/12/04 05:36:48;;;;;;;5.30;3.13;;;1.50;99.90;;;;;;2626154;54;20643;-77
2021/12/04 05:39:23;;;;;;;7.93;3.42;;;1.50;99.90;;;;;;2628531;39;20386;-74
2021/12/04 05:41:55;;;;;;;8.50;3.47;;;1.50;99.90;;;;;;2626814;54;20027;-79
2021/12/04 05:44:36;;;;;;;5.13;2.60;;;1.50;99.90;;;;;;2626706;39;20409;-77
2021/12/04 05:47:15;;;;;;;5.88;3.20;;;1.40;99.90;;;;;;2626740;54;20118;-76
2021/12/04 05:49:58;;;;;;;8.30;3.78;;;1.50;99.90;;;;;;2626530;54;20034;-76
2021/12/04 05:52:41;;;;;;;6.68;3.47;;;1.50;99.90;;;;;;2626202;54;20042;-76
2021/12/04 05:55:17;;;;;;;6.88;2.83;;;1.50;99.90;;;;;;2627499;39;20425;-75
2021/12/04 05:57:49;;;;;;;7.43;3.58;;;1.50;99.90;;;;;;2627294;46;20035;-77
2021/12/04 06:00:26;;;;;;;6.97;2.95;;;1.50;99.90;;;;;;2626259;54;20555;-75
2021/12/04 06:03:02;;;;;;;8.73;4.10;;;1.50;99.90;;;;;;2625897;54;20046;-76
2021/12/04 06:05:36;;;;;;;8.25;3.95;;;1.50;99.90;;;;;;2625550;54;20030;-74
2021/12/04 06:08:09;;;;;;;8.15;3.22;;;1.50;99.90;;;;;;2626484;54;20033;-75
2021/12/04 06:10:45;;;;;;;5.90;3.05;;;1.50;99.90;;;;;;2626176;54;20054;-75
2021/12/04 06:16:11;;;;;;;7.25;3.33;;;1.60;99.90;;;;;;2626511;54;20138;-74
2021/12/04 06:18:52;;;;;;;8.10;3.63;;;1.50;99.90;;;;;;2626889;39;20396;-76
2021/12/04 06:24:07;;;;;;;6.90;3.38;;;1.60;99.90;;;;;;2626617;54;20037;-75
2021/12/04 06:26:39;;;;;;;7.88;3.25;;;1.60;99.90;;;;;;2626209;54;20081;-76
2021/12/04 06:29:17;;;;;;;16.80;4.55;;;1.60;99.90;;;;;;2626785;46;20045;-77
2021/12/04 06:31:53;;;;;;;8.63;4.40;;;1.60;99.90;;;;;;2626001;54;20034;-76
2021/12/04 06:34:25;;;;;;;17.80;5.00;;;1.60;99.90;;;;;;2625571;54;20031;-75
2021/12/04 06:36:57;;;;;;;9.50;4.32;;;1.60;99.90;;;;;;2625934;54;20129;-75
2021/12/04 06:39:30;;;;;;;11.48;5.68;;;1.60;99.90;;;;;;2625421;54;20041;-74
2021/12/04 06:42:02;;;;;;;12.98;8.18;;;1.70;99.90;;;;;;2625882;54;20026;-74
2021/12/04 06:44:37;;;;;;;9.95;5.25;;;1.60;99.90;;;;;;2625215;54;20030;-76
2021/12/04 06:47:13;;;;;;;8.53;5.20;;;1.60;99.90;;;;;;2625490;54;20035;-76
2021/12/04 06:49:45;;;;;;;39.65;17.25;;;1.70;99.90;;;;;;2626457;54;20035;-77
2021/12/04 06:52:22;;;;;;;33.72;16.83;;;1.60;99.90;;;;;;2625467;54;20043;-74
2021/12/04 06:54:55;;;;;;;37.43;19.57;;;1.60;99.90;;;;;;2625817;54;20034;-74
2021/12/04 06:57:28;;;;;;;16.42;8.43;;;1.50;99.90;;;;;;2625871;54;20255;-76
2021/12/04 07:00:03;;;;;;;12.43;6.00;;;1.50;99.90;;;;;;2625599;54;20056;-75
2021/12/04 07:02:38;;;;;;;11.93;5.10;;;1.50;99.90;;;;;;2625532;54;20030;-75
2021/12/04 07:05:17;;;;;;;14.60;5.38;;;1.50;99.90;;;;;;2626024;54;20097;-75
2021/12/04 07:07:49;;;;;;;8.63;4.30;;;1.50;99.90;;;;;;2626986;46;20027;-75
2021/12/04 07:10:24;;;;;;;10.48;5.75;;;1.50;99.90;;;;;;2627381;54;20034;-77
2021/12/04 07:12:56;;;;;;;19.20;5.25;;;1.40;99.90;;;;;;2627763;54;20033;-76
2021/12/04 07:15:40;;;;;;;12.88;5.05;;;1.40;99.90;;;;;;2627221;54;20033;-75
2021/12/04 07:18:16;;;;;;;11.13;4.63;;;1.40;99.90;;;;;;2626882;54;20027;-74
2021/12/04 07:20:48;;;;;;;14.27;4.20;;;1.40;99.90;;;;;;2627394;54;20541;-77
2021/12/04 07:23:23;;;;;;;10.65;5.45;;;1.40;99.90;;;;;;2626982;54;20034;-77
2021/12/04 07:25:55;;;;;;;12.17;4.90;;;1.40;99.90;;;;;;2626992;54;20031;-76
2021/12/04 07:28:34;;;;;;;9.88;5.15;;;1.40;99.90;;;;;;2626800;54;20600;-75
2021/12/04 07:31:05;;;;;;;8.02;4.68;;;1.40;99.90;;;;;;2627246;54;20031;-75
2021/12/04 07:33:41;;;;;;;7.50;5.25;;;1.40;99.90;;;;;;2627621;54;20026;-77
2021/12/04 07:36:14;;;;;;;8.63;5.25;;;1.40;99.90;;;;;;2627436;54;20029;-76
2021/12/04 07:39:02;;;;;;;12.32;5.55;;;1.40;99.90;;;;;;2627144;54;20030;-74
2021/12/04 07:41:38;;;;;;;8.98;5.10;;;1.50;99.90;;;;;;2627576;47;20030;-77
2021/12/04 07:44:11;;;;;;;8.55;5.43;;;1.50;99.90;;;;;;2626959;54;20034;-75
2021/12/04 07:46:43;;;;;;;11.05;6.13;;;1.50;99.90;;;;;;2626458;54;20031;-77
2021/12/04 07:49:18;;;;;;;9.93;6.05;;;1.50;99.90;;;;;;2626519;54;20082;-75
2021/12/04 07:51:53;;;;;;;13.63;6.07;;;1.50;99.90;;;;;;2630756;31;20634;-77
2021/12/04 07:54:26;;;;;;;14.85;6.28;;;1.50;99.90;;;;;;2626632;54;20251;-76
2021/12/04 07:56:57;;;;;;;12.73;6.68;;;1.60;99.90;;;;;;2626946;54;20030;-76
2021/12/04 07:59:37;;;;;;;13.45;6.25;;;1.60;99.90;;;;;;2627331;54;20036;-77
2021/12/04 08:02:10;;;;;;;13.52;6.65;;;1.60;99.90;;;;;;2626701;54;20537;-76
2021/12/04 08:04:48;;;;;;;15.43;7.13;;;1.70;99.90;;;;;;2627278;46;20031;-77
2021/12/04 08:07:20;;;;;;;21.75;6.88;;;1.70;99.90;;;;;;2626347;54;20039;-74
2021/12/04 08:09:53;;;;;;;9.60;6.22;;;1.70;99.90;;;;;;2626825;54;20034;-75
2021/12/04 08:12:24;;;;;;;12.90;6.68;;;1.70;99.90;;;;;;2626816;54;20034;-77
2021/12/04 08:14:55;;;;;;;11.55;5.97;;;1.80;99.90;;;;;;2626696;54;20081;-76
2021/12/04 10:56:48;;;;;;;8.32;4.13;;;3.10;99.90;;;;;;2622624;54;20049;-77
2021/12/04 11:02:14;;;;;;;15.02;4.57;;;3.20;99.90;;;;;;2628349;54;20730;-76
2021/12/04 11:04:48;;;;;;;8.45;4.43;;;3.20;99.90;;;;;;2628834;54;20042;-78
2021/12/04 11:19:11;;;;;;;13.63;7.32;;;3.20;99.90;;;;;;2627454;54;20618;-76
2021/12/04 11:36:20;;;;;;;15.60;8.52;;;3.20;99.90;;;;;;2627304;54;20067;-79
2021/12/04 11:39:07;;;;;;;17.63;8.32;;;3.20;99.90;;;;;;2627408;54;20038;-78
2021/12/04 11:41:43;;;;;;;17.38;8.35;;;3.20;99.90;;;;;;2628318;54;20030;-77
2021/12/04 11:44:25;;;;;;;22.67;13.07;;;3.20;99.90;;;;;;2628271;54;20030;-76
2021/12/04 11:47:00;;;;;;;20.88;10.35;;;3.20;99.90;;;;;;2628454;54;20031;-76
2021/12/04 11:49:35;;;;;;;18.33;11.02;;;3.10;99.90;;;;;;2629340;54;20011;-78
2021/12/04 11:52:11;;;;;;;20.45;12.35;;;3.10;99.90;;;;;;2629646;54;20030;-74
2021/12/04 11:54:49;;;;;;;19.27;11.43;;;3.10;99.90;;;;;;2629701;54;20077;-77
2021/12/04 11:57:31;;;;;;;23.10;12.55;;;3.20;99.90;;;;;;2630292;47;20081;-75
2021/12/04 12:00:11;;;;;;;25.27;14.20;;;3.20;99.90;;;;;;2629169;54;20609;-76
2021/12/04 12:02:47;;;;;;;18.30;9.27;;;3.20;99.90;;;;;;2629579;54;20090;-76
2021/12/04 12:05:22;;;;;;;17.92;8.65;;;3.20;99.90;;;;;;2634198;39;20421;-75
2021/12/04 12:07:59;;;;;;;20.95;11.75;;;3.20;99.90;;;;;;2629691;54;20142;-77
2021/12/04 12:10:31;;;;;;;;;;;3.20;99.90;;;;;;2630279;54;20544;-75
2021/12/04 12:13:07;;;;;;;20.30;10.90;;;3.20;99.90;;;;;;2629831;54;19958;-75
2021/12/04 12:15:40;;;;;;;20.70;9.65;;;3.20;99.90;;;;;;2629069;54;20121;-75
2021/12/04 12:18:21;;;;;;;25.63;15.70;;;3.10;99.90;;;;;;2628903;39;20521;-78
2021/12/04 12:20:57;;;;;;;22.33;11.75;;;3.20;99.90;;;;;;2629143;54;20034;-75
2021/12/04 12:23:32;;;;;;;20.60;9.40;;;3.20;99.90;;;;;;2630628;39;20425;-79
2021/12/04 12:32:13;;;;;;;33.05;19.55;;;3.10;99.90;;;;;;2628143;54;20023;-78
2021/12/04 12:37:37;;;;;;;20.77;12.20;;;3.20;99.90;;;;;;2625834;54;20026;-76
2021/12/04 12:40:14;;;;;;;18.55;9.82;;;3.20;99.90;;;;;;2626026;47;20054;-77
2021/12/04 12:42:46;;;;;;;18.67;10.00;;;3.20;99.90;;;;;;2626094;54;20048;-75
2021/12/04 12:45:29;;;;;;;37.55;18.25;;;3.20;99.90;;;;;;2626139;54;20034;-76
2021/12/04 12:48:05;;;;;;;29.05;15.40;;;3.30;99.90;;;;;;2627191;54;20102;-74
2021/12/04 12:50:49;;;;;;;22.27;13.73;;;3.50;99.90;;;;;;2627309;54;20533;-77
2021/12/04 12:53:23;;;;;;;17.42;8.45;;;3.60;99.90;;;;;;2624087;54;20037;-74
2021/12/04 12:55:58;;;;;;;15.48;8.77;;;3.80;99.90;;;;;;2626491;54;20035;-76
2021/12/04 12:58:39;;;;;;;18.10;9.07;;;3.90;99.90;;;;;;2627891;54;20026;-76
2021/12/04 13:12:23;;;;;;;15.65;9.30;;;3.60;99.90;;;;;;2628297;54;20089;-76
2021/12/04 13:15:02;;;;;;;16.02;8.20;;;3.60;99.90;;;;;;2629223;54;20030;-78
2021/12/04 13:17:34;;;;;;;19.70;11.50;;;3.60;99.90;;;;;;2629641;54;20027;-75
2021/12/04 13:20:11;;;;;;;17.83;10.93;;;3.60;99.90;;;;;;2629610;54;20054;-75
2021/12/04 13:22:47;;;;;;;20.80;12.32;;;3.50;99.90;;;;;;2628736;54;20040;-77
2021/12/04 13:25:26;;;;;;;15.30;10.23;;;3.50;99.90;;;;;;2629070;54;20042;-74
2021/12/04 13:30:28;;;;;;;19.33;10.05;;;3.50;99.90;;;;;;2630876;54;20015;-75
2021/12/04 13:33:00;;;;;;;15.98;9.38;;;3.60;99.90;;;;;;2630739;54;20053;-75
2021/12/04 13:35:48;;;;;;;12.88;8.52;;;3.50;99.90;;;;;;2631654;46;20027;-76
2021/12/04 13:38:23;;;;;;;19.60;9.02;;;3.50;99.90;;;;;;2630927;54;20034;-77
2021/12/04 13:41:03;;;;;;;17.58;9.30;;;3.50;99.90;;;;;;2633881;39;20396;-77
2021/12/04 13:43:35;;;;;;;16.00;8.77;;;3.50;99.90;;;;;;2631959;46;20033;-75
2021/12/04 13:46:07;;;;;;;13.43;8.43;;;3.40;99.90;;;;;;2629109;54;20057;-75
2021/12/04 13:48:40;;;;;;;15.30;8.63;;;3.50;99.90;;;;;;2633686;39;20413;-75
2021/12/04 13:51:28;;;;;;;15.25;9.23;;;3.40;99.90;;;;;;2632608;39;20425;-76
2021/12/04 13:54:05;;;;;;;16.27;8.98;;;3.40;99.90;;;;;;2631099;54;20026;-77
2021/12/04 13:56:58;;;;;;;42.40;25.75;;;3.40;99.90;;;;;;2629987;54;20068;-78
2021/12/04 13:59:31;;;;;;;16.08;10.13;;;3.50;99.90;;;;;;2628879;54;20031;-75
2021/12/04 14:02:03;;;;;;;15.77;9.05;;;3.40;99.90;;;;;;2629569;54;20074;-77
2021/12/04 14:04:36;;;;;;;29.58;17.45;;;3.50;99.90;;;;;;2629452;54;20042;-77
2021/12/04 14:07:07;;;;;;;18.88;9.45;;;3.40;99.90;;;;;;2630045;54;20034;-76
2021/12/04 14:09:42;;;;;;;21.70;9.75;;;3.40;99.90;;;;;;2629792;54;20015;-76
2021/12/04 14:12:16;;;;;;;17.63;9.38;;;3.40;99.90;;;;;;2630178;54;20022;-76
2021/12/04 14:14:49;;;;;;;22.05;11.05;;;3.30;99.90;;;;;;2629369;54;20090;-75
2021/12/04 14:17:21;;;;;;;26.25;12.65;;;3.30;99.90;;;;;;2628100;54;20041;-75
2021/12/04 14:19:53;;;;;;;20.63;11.32;;;3.30;99.90;;;;;;2629129;39;20965;31
2021/12/04 14:22:26;;;;;;;29.48;13.82;;;3.40;99.90;;;;;;2631500;54;20026;-78
2021/12/04 14:25:02;;;;;;;22.75;11.20;;;3.30;99.90;;;;;;2618942;54;20041;-76
2021/12/04 14:27:37;;;;;;;114.95;48.03;;;3.30;99.90;;;;;;2630770;54;20010;-75
2021/12/04 14:30:13;;;;;;;61.67;33.20;;;3.30;99.90;;;;;;2631006;54;20031;-77
2021/12/04 14:32:52;;;;;;;84.53;43.85;;;3.20;99.90;;;;;;2627878;46;20023;-72
2021/12/04 14:35:30;;;;;;;33.13;17.13;;;3.20;99.90;;;;;;2634803;46;20037;31
2021/12/04 14:38:03;;;;;;;23.73;13.65;;;3.20;99.90;;;;;;2631147;54;20042;-77
2021/12/04 14:40:42;;;;;;;28.15;14.25;;;3.20;99.90;;;;;;2630043;54;20045;-76
2021/12/04 14:43:14;;;;;;;28.83;13.65;;;3.10;99.90;;;;;;2629669;46;20037;-78
2021/12/04 14:45:55;;;;;;;34.75;15.48;;;3.20;99.90;;;;;;2629134;54;20057;-77
2021/12/04 14:48:30;;;;;;;26.35;12.90;;;3.10;99.90;;;;;;2629387;54;20031;-78
2021/12/04 14:51:06;;;;;;;32.65;16.55;;;3.10;99.90;;;;;;2628738;54;20046;-75
2021/12/04 14:53:41;;;;;;;32.58;17.88;;;3.00;99.90;;;;;;2628483;54;20069;-76
2021/12/04 14:56:22;;;;;;;37.28;19.65;;;3.00;99.90;;;;;;2625916;39;20326;-75
2021/12/04 14:58:54;;;;;;;49.45;27.15;;;2.90;99.90;;;;;;2630548;54;20015;-75
2021/12/04 15:01:27;;;;;;;48.95;28.20;;;2.90;99.90;;;;;;2630702;54;20035;-75
2021/12/04 15:04:02;;;;;;;27.15;14.95;;;2.90;99.90;;;;;;2630520;54;20014;-76
2021/12/04 15:06:36;;;;;;;32.67;19.05;;;2.90;99.90;;;;;;2634641;46;20033;-78
2021/12/04 15:09:11;;;;;;;32.97;17.90;;;2.90;99.90;;;;;;2626461;39;20714;31
2021/12/04 15:11:50;;;;;;;37.65;20.05;;;2.80;99.90;;;;;;2628055;54;20015;31
2021/12/04 15:14:31;;;;;;;28.23;16.20;;;2.80;99.90;;;;;;2642538;46;20028;-75
2021/12/04 15:17:14;;;;;;;24.90;14.73;;;2.80;99.90;;;;;;2630080;54;20019;-75
2021/12/04 15:19:47;;;;;;;28.60;15.95;;;2.70;99.90;;;;;;2629988;54;20027;-76
2021/12/04 15:22:24;;;;;;;29.45;17.95;;;2.70;99.90;;;;;;2630829;54;20538;-76
2021/12/04 15:24:56;;;;;;;25.95;14.85;;;2.60;99.90;;;;;;2630441;54;20029;-76
2021/12/04 15:27:32;;;;;;;29.95;18.15;;;2.60;99.90;;;;;;2629892;54;20073;-76
2021/12/04 15:30:09;;;;;;;27.48;15.27;;;2.60;99.90;;;;;;2628604;54;20034;-75
2021/12/04 15:32:43;;;;;;;25.83;15.65;;;2.60;99.90;;;;;;2628229;54;20022;-75
2021/12/04 15:35:25;;;;;;;28.73;14.73;;;2.60;99.90;;;;;;2629084;54;20505;-75
2021/12/04 15:38:42;;;;;;;25.20;13.70;;;2.60;99.90;;;;;;2629691;54;20031;-76
2021/12/04 15:41:18;;;;;;;27.87;14.10;;;2.50;99.90;;;;;;2628859;54;20030;-76
2021/12/04 15:44:05;;;;;;;33.25;14.80;;;2.50;99.90;;;;;;2629512;54;20361;-75
2021/12/04 15:46:47;;;;;;;26.35;13.98;;;2.40;99.90;;;;;;2628754;54;20031;-76
2021/12/04 15:55:02;;;;;;;34.65;20.60;;;2.30;99.90;;;;;;2629618;54;20086;-75
2021/12/04 15:57:35;;;;;;;37.92;20.83;;;2.30;99.90;;;;;;2628429;54;20034;-77
2021/12/04 16:00:16;;;;;;;42.35;26.20;;;2.30;99.90;;;;;;2628384;54;20031;-77
2021/12/04 16:02:51;;;;;;;42.53;27.80;;;2.30;99.90;;;;;;2628568;54;20038;-74
2021/12/04 16:05:25;;;;;;;37.85;24.83;;;2.20;99.90;;;;;;2628821;54;20031;-76
2021/12/04 16:08:03;;;;;;;39.10;25.13;;;2.20;99.90;;;;;;2628781;54;20087;-75
2021/12/04 16:10:34;;;;;;;46.67;29.50;;;2.20;99.90;;;;;;2628872;54;20033;-75
2021/12/04 16:13:08;;;;;;;94.90;59.30;;;2.10;99.90;;;;;;2627764;54;20082;-77
2021/12/04 16:15:43;;;;;;;104.13;62.47;;;2.10;99.90;;;;;;2629248;54;20091;-78
2021/12/04 16:18:17;;;;;;;72.60;42.03;;;2.10;99.90;;;;;;2629514;54;20030;-77
2021/12/04 16:20:49;;;;;;;142.30;58.92;;;2.10;99.90;;;;;;2630359;54;20038;-74
2021/12/04 16:23:25;;;;;;;188.00;58.95;;;2.10;99.90;;;;;;2630477;46;20026;-75
2021/12/04 16:26:00;;;;;;;172.05;57.15;;;2.00;99.90;;;;;;2630362;54;20522;-76
2021/12/04 16:28:48;;;;;;;172.60;57.55;;;2.00;99.90;;;;;;2630648;54;20070;-75
2021/12/04 16:31:38;;;;;;;213.38;67.45;;;1.90;99.90;;;;;;2629767;54;20133;-76
2021/12/04 16:37:04;;;;;;;178.65;69.45;;;1.90;99.90;;;;;;2628248;54;20038;-75
2021/12/04 16:39:40;;;;;;;155.45;64.97;;;1.90;99.90;;;;;;2629663;46;20039;-76
2021/12/04 16:42:18;;;;;;;130.02;58.42;;;1.90;99.90;;;;;;2627740;54;20042;-76
2021/12/04 16:44:49;;;;;;;136.07;68.43;;;1.90;99.90;;;;;;2627690;54;20031;-77
2021/12/04 16:47:27;;;;;;;90.70;47.22;;;1.80;99.90;;;;;;2628512;54;20037;-78
2021/12/04 16:49:59;;;;;;;66.60;36.50;;;1.80;99.90;;;;;;2628060;54;20040;-76
2021/12/04 16:55:27;;;;;;;137.82;72.38;;;1.90;99.90;;;;;;2628092;54;20056;-76
2021/12/04 16:58:24;;;;;;;192.02;105.28;;;1.80;99.90;;;;;;2628200;54;20030;-76
2021/12/04 17:00:56;;;;;;;131.68;74.22;;;1.80;99.90;;;;;;2628626;54;20042;-76
2021/12/04 17:03:36;;;;;;;158.13;80.90;;;1.80;99.90;;;;;;2630929;39;20493;-75
2021/12/04 17:06:08;;;;;;;279.80;152.15;;;1.80;99.90;;;;;;2628525;46;20038;-78
2021/12/04 17:08:50;;;;;;;187.82;110.00;;;1.80;99.90;;;;;;2628635;54;20027;-76
2021/12/04 17:11:23;;;;;;;124.30;85.25;;;1.80;99.90;;;;;;2628431;54;20032;-74
2021/12/04 17:14:04;;;;;;;127.78;83.00;;;1.80;99.90;;;;;;2628616;54;20730;-75
2021/12/04 17:16:36;;;;;;;154.07;100.38;;;1.80;99.90;;;;;;2629469;54;20014;-76
2021/12/04 17:19:12;;;;;;;91.90;62.25;;;1.80;99.90;;;;;;2628906;54;20031;-77
2021/12/04 17:21:46;;;;;;;79.80;58.58;;;1.80;99.90;;;;;;2628817;54;20026;-75
2021/12/04 17:24:18;;;;;;;82.70;55.97;;;1.90;99.90;;;;;;2628735;54;20026;-78
2021/12/04 17:26:53;;;;;;;73.72;49.40;;;1.80;99.90;;;;;;2629247;54;20026;-75
2021/12/04 17:29:25;;;;;;;75.00;50.45;;;1.80;99.90;;;;;;2628631;54;20077;-75
2021/12/04 17:31:58;;;;;;;59.88;41.72;;;1.80;99.90;;;;;;2628985;54;20034;-76
2021/12/04 17:34:33;;;;;;;50.35;29.70;;;1.90;99.90;;;;;;2629415;54;20037;-75
2021/12/04 17:37:08;;;;;;;49.40;26.73;;;1.80;99.90;;;;;;2630045;46;20077;-75
2021/12/04 17:39:41;;;;;;;52.58;28.90;;;1.70;99.90;;;;;;2629730;46;20031;-77
2021/12/04 17:42:13;;;;;;;56.53;30.75;;;1.70;99.90;;;;;;2629677;54;20563;-78
2021/12/04 17:44:45;;;;;;;59.20;32.75;;;1.70;99.90;;;;;;2630203;54;20026;-78
2021/12/04 17:47:20;;;;;;;58.75;34.90;;;1.60;99.90;;;;;;2630265;54;20053;-75
2021/12/04 17:49:55;;;;;;;59.17;34.00;;;1.60;99.90;;;;;;2630075;54;20030;-76
2021/12/04 17:52:28;;;;;;;56.03;31.02;;;1.60;99.90;;;;;;2630235;54;20082;-75
2021/12/04 17:55:00;;;;;;;57.28;32.88;;;1.60;99.90;;;;;;2631379;31;20486;-76
2021/12/04 17:57:34;;;;;;;54.40;30.30;;;1.60;99.90;;;;;;2630056;54;20057;-76
2021/12/04 18:00:06;;;;;;;50.40;29.38;;;1.60;99.90;;;;;;2629977;54;20027;-75
2021/12/04 18:02:44;;;;;;;51.65;29.77;;;1.60;99.90;;;;;;2628956;54;20026;-77
2021/12/04 18:05:24;;;;;;;;;;;1.60;99.90;;;;;;2629240;54;20036;-76
2021/12/04 18:07:58;;;;;;;62.78;34.88;;;1.60;99.90;;;;;;2629402;54;21623;-77
2021/12/04 18:10:34;;;;;;;63.00;34.63;;;1.60;99.90;;;;;;2627862;39;20311;31
2021/12/04 18:13:08;;;;;;;59.58;33.65;;;1.50;99.90;;;;;;2630523;54;20037;-76
2021/12/04 18:15:43;;;;;;;64.95;35.05;;;1.50;99.90;;;;;;2629971;54;20026;-77
2021/12/04 18:18:35;;;;;;;64.57;35.17;;;1.50;99.90;;;;;;2630023;54;20597;-74